Aviation Digital Data Service (ADDS)

Output produced by METARs form (0954 UTC 26 June 2016)
found at http://www.aviationweather.gov/adds/metars/
 
KESN 260945Z 00000KT 10SM SKC 16/16 A3027